sensor_id;sensor_type;location;lat;lon;timestamp;pressure;altitude;pressure_sealevel;temperature;humidity
73457;BME280;61691;53.072;6.582;2023-05-19T00:01:13;102916.13;;;9.02;74.26
73457;BME280;61691;53.072;6.582;2023-05-19T00:03:55;102877.41;;;8.82;74.55
73457;BME280;61691;53.072;6.582;2023-05-19T00:06:29;102902.25;;;8.97;74.52
73457;BME280;61691;53.072;6.582;2023-05-19T00:08:59;102909.19;;;8.99;74.67
73457;BME280;61691;53.072;6.582;2023-05-19T00:11:27;102910.25;;;8.95;74.36
73457;BME280;61691;53.072;6.582;2023-05-19T00:13:56;102892.97;;;8.88;74.70
73457;BME280;61691;53.072;6.582;2023-05-19T00:16:25;102897.25;;;8.90;74.62
73457;BME280;61691;53.072;6.582;2023-05-19T00:18:52;102904.41;;;8.88;75.11
73457;BME280;61691;53.072;6.582;2023-05-19T00:21:19;102905.28;;;8.89;74.87
73457;BME280;61691;53.072;6.582;2023-05-19T00:23:46;102866.56;;;8.69;75.14
73457;BME280;61691;53.072;6.582;2023-05-19T00:26:14;102891.41;;;8.84;75.30
73457;BME280;61691;53.072;6.582;2023-05-19T00:28:41;102888.72;;;8.85;75.18
73457;BME280;61691;53.072;6.582;2023-05-19T00:31:07;102877.47;;;8.80;75.33
73457;BME280;61691;53.072;6.582;2023-05-19T00:33:34;102892.09;;;8.87;75.00
73457;BME280;61691;53.072;6.582;2023-05-19T00:36:02;102876.59;;;8.80;75.66
73457;BME280;61691;53.072;6.582;2023-05-19T00:38:30;102880.69;;;8.87;75.54
73457;BME280;61691;53.072;6.582;2023-05-19T00:40:58;102862.75;;;8.75;75.65
73457;BME280;61691;53.072;6.582;2023-05-19T00:43:25;102880.69;;;8.87;75.33
73457;BME280;61691;53.072;6.582;2023-05-19T00:45:52;102882.38;;;8.88;75.50
73457;BME280;61691;53.072;6.582;2023-05-19T00:48:19;102869.41;;;8.83;75.55
73457;BME280;61691;53.072;6.582;2023-05-19T00:50:47;102877.97;;;8.88;75.57
73457;BME280;61691;53.072;6.582;2023-05-19T00:53:16;102884.97;;;8.89;75.34
73457;BME280;61691;53.072;6.582;2023-05-19T00:55:43;102846.28;;;8.70;75.61
73457;BME280;61691;53.072;6.582;2023-05-19T00:58:12;102877.34;;;8.83;75.73
73457;BME280;61691;53.072;6.582;2023-05-19T01:00:39;102857.63;;;8.72;75.63
73457;BME280;61691;53.072;6.582;2023-05-19T01:03:07;102863.97;;;8.86;75.90
73457;BME280;61691;53.072;6.582;2023-05-19T01:05:41;102874.56;;;8.86;75.43
73457;BME280;61691;53.072;6.582;2023-05-19T01:08:07;102835.69;;;8.70;75.83
73457;BME280;61691;53.072;6.582;2023-05-19T01:10:36;102863.38;;;8.80;76.00
73457;BME280;61691;53.072;6.582;2023-05-19T01:13:04;102826.41;;;8.61;75.76
73457;BME280;61691;53.072;6.582;2023-05-19T01:15:40;102827.03;;;8.66;75.68
73457;BME280;61691;53.072;6.582;2023-05-19T01:18:13;102862.31;;;8.84;76.14
73457;BME280;61691;53.072;6.582;2023-05-19T01:20:46;102843.69;;;8.68;75.97
73457;BME280;61691;53.072;6.582;2023-05-19T01:23:33;102867.69;;;8.82;75.95
73457;BME280;61691;53.072;6.582;2023-05-19T01:26:30;102873.91;;;8.81;75.85
73457;BME280;61691;53.072;6.582;2023-05-19T01:31:44;102792.41;;;8.35;75.79
73457;BME280;61691;53.072;6.582;2023-05-19T01:34:14;102851.38;;;8.73;76.07
73457;BME280;61691;53.072;6.582;2023-05-19T01:36:43;102824.94;;;8.56;76.20
73457;BME280;61691;53.072;6.582;2023-05-19T01:39:10;102825.00;;;8.54;76.17
73457;BME280;61691;53.072;6.582;2023-05-19T01:41:40;102856.47;;;8.77;76.18
73457;BME280;61691;53.072;6.582;2023-05-19T01:44:07;102837.00;;;8.61;75.71
73457;BME280;61691;53.072;6.582;2023-05-19T01:46:36;102857.53;;;8.73;76.20
73457;BME280;61691;53.072;6.582;2023-05-19T01:49:03;102843.13;;;8.62;76.17
73457;BME280;61691;53.072;6.582;2023-05-19T01:51:30;102846.34;;;8.68;75.82
73457;BME280;61691;53.072;6.582;2023-05-19T01:53:57;102820.69;;;8.51;75.94
73457;BME280;61691;53.072;6.582;2023-05-19T01:56:41;102850.53;;;8.72;75.89
73457;BME280;61691;53.072;6.582;2023-05-19T02:02:25;102830.97;;;8.58;75.83
73457;BME280;61691;53.072;6.582;2023-05-19T02:04:59;102836.69;;;8.67;75.85
73457;BME280;61691;53.072;6.582;2023-05-19T02:07:43;102837.84;;;8.62;76.22
73457;BME280;61691;53.072;6.582;2023-05-19T02:10:25;102827.47;;;8.57;76.02
73457;BME280;61691;53.072;6.582;2023-05-19T02:12:55;102831.84;;;8.58;75.78
73457;BME280;61691;53.072;6.582;2023-05-19T02:15:25;102834.41;;;8.60;75.70
73457;BME280;61691;53.072;6.582;2023-05-19T02:17:54;102829.78;;;8.46;75.89
73457;BME280;61691;53.072;6.582;2023-05-19T02:20:23;102832.00;;;8.55;75.87
73457;BME280;61691;53.072;6.582;2023-05-19T02:22:50;102795.22;;;8.32;75.80
73457;BME280;61691;53.072;6.582;2023-05-19T02:25:17;102833.72;;;8.56;76.28
73457;BME280;61691;53.072;6.582;2023-05-19T02:27:43;102827.78;;;8.51;75.81
73457;BME280;61691;53.072;6.582;2023-05-19T02:30:11;102821.72;;;8.49;76.14
73457;BME280;61691;53.072;6.582;2023-05-19T02:32:38;102813.28;;;8.41;76.00
73457;BME280;61691;53.072;6.582;2023-05-19T02:35:05;102820.13;;;8.45;75.77
73457;BME280;61691;53.072;6.582;2023-05-19T02:37:32;102818.41;;;8.44;76.08
73457;BME280;61691;53.072;6.582;2023-05-19T02:39:58;102789.28;;;8.27;76.25
73457;BME280;61691;53.072;6.582;2023-05-19T02:42:25;102809.84;;;8.39;75.84
73457;BME280;61691;53.072;6.582;2023-05-19T02:44:53;102820.94;;;8.47;76.01
73457;BME280;61691;53.072;6.582;2023-05-19T02:47:20;102790.03;;;8.29;76.28
73457;BME280;61691;53.072;6.582;2023-05-19T02:49:47;102802.72;;;8.41;76.27
73457;BME280;61691;53.072;6.582;2023-05-19T02:52:13;102817.56;;;8.43;76.38
73457;BME280;61691;53.072;6.582;2023-05-19T02:54:40;102795.16;;;8.33;75.87
73457;BME280;61691;53.072;6.582;2023-05-19T02:57:07;102810.91;;;8.35;75.81
73457;BME280;61691;53.072;6.582;2023-05-19T02:59:33;102797.22;;;8.27;75.97
73457;BME280;61691;53.072;6.582;2023-05-19T03:02:00;102808.44;;;8.32;75.81
73457;BME280;61691;53.072;6.582;2023-05-19T03:04:28;102773.47;;;8.06;75.98
73457;BME280;61691;53.072;6.582;2023-05-19T03:06:55;102793.25;;;8.16;76.08
73457;BME280;61691;53.072;6.582;2023-05-19T03:09:23;102803.66;;;8.20;76.35
73457;BME280;61691;53.072;6.582;2023-05-19T03:11:49;102808.81;;;8.23;76.09
73457;BME280;61691;53.072;6.582;2023-05-19T03:14:16;102800.28;;;8.18;76.19
73457;BME280;61691;53.072;6.582;2023-05-19T03:16:44;102798.53;;;8.16;76.26
73457;BME280;61691;53.072;6.582;2023-05-19T03:19:11;102785.88;;;8.04;75.97
73457;BME280;61691;53.072;6.582;2023-05-19T03:21:38;102786.63;;;8.08;76.08
73457;BME280;61691;53.072;6.582;2023-05-19T03:24:04;102812.69;;;8.15;76.31
73457;BME280;61691;53.072;6.582;2023-05-19T03:26:32;102809.25;;;8.13;76.40
73457;BME280;61691;53.072;6.582;2023-05-19T03:28:58;102802.13;;;8.15;76.42
73457;BME280;61691;53.072;6.582;2023-05-19T03:31:25;102795.41;;;8.08;75.85
73457;BME280;61691;53.072;6.582;2023-05-19T03:33:52;102767.97;;;7.92;76.28
73457;BME280;61691;53.072;6.582;2023-05-19T03:36:19;102804.13;;;8.10;76.70
73457;BME280;61691;53.072;6.582;2023-05-19T03:38:47;102784.97;;;8.05;76.16
73457;BME280;61691;53.072;6.582;2023-05-19T03:41:14;102821.97;;;8.24;76.41
73457;BME280;61691;53.072;6.582;2023-05-19T03:43:41;102814.09;;;8.23;76.77
73457;BME280;61691;53.072;6.582;2023-05-19T03:46:08;102815.03;;;8.22;77.01
73457;BME280;61691;53.072;6.582;2023-05-19T03:48:35;102805.31;;;8.22;76.53
73457;BME280;61691;53.072;6.582;2023-05-19T03:51:01;102795.13;;;8.14;76.97
73457;BME280;61691;53.072;6.582;2023-05-19T03:53:29;102815.69;;;8.27;76.74
73457;BME280;61691;53.072;6.582;2023-05-19T03:55:56;102801.69;;;8.25;77.08
73457;BME280;61691;53.072;6.582;2023-05-19T03:58:23;102817.28;;;8.31;77.09
73457;BME280;61691;53.072;6.582;2023-05-19T04:00:50;102809.34;;;8.31;77.41
73457;BME280;61691;53.072;6.582;2023-05-19T04:03:16;102791.13;;;8.25;77.20
73457;BME280;61691;53.072;6.582;2023-05-19T04:05:43;102804.69;;;8.36;77.27
73457;BME280;61691;53.072;6.582;2023-05-19T04:08:10;102811.28;;;8.46;77.82
73457;BME280;61691;53.072;6.582;2023-05-19T04:10:37;102821.56;;;8.52;77.33
73457;BME280;61691;53.072;6.582;2023-05-19T04:13:03;102817.69;;;8.59;77.73
73457;BME280;61691;53.072;6.582;2023-05-19T04:15:30;102822.69;;;8.65;77.55
73457;BME280;61691;53.072;6.582;2023-05-19T04:17:57;102803.53;;;8.60;77.38
73457;BME280;61691;53.072;6.582;2023-05-19T04:20:23;102797.81;;;8.69;77.42
73457;BME280;61691;53.072;6.582;2023-05-19T04:22:50;102803.59;;;8.77;77.46
73457;BME280;61691;53.072;6.582;2023-05-19T04:25:17;102824.47;;;9.01;77.95
73457;BME280;61691;53.072;6.582;2023-05-19T04:27:45;102820.75;;;9.39;78.35
73457;BME280;61691;53.072;6.582;2023-05-19T04:30:13;102811.91;;;10.06;79.09
73457;BME280;61691;53.072;6.582;2023-05-19T04:32:47;102818.56;;;11.07;78.51
73457;BME280;61691;53.072;6.582;2023-05-19T04:35:17;102801.47;;;11.85;76.99
73457;BME280;61691;53.072;6.582;2023-05-19T04:37:44;102821.06;;;12.80;75.65
73457;BME280;61691;53.072;6.582;2023-05-19T04:40:11;102824.34;;;13.50;74.20
73457;BME280;61691;53.072;6.582;2023-05-19T04:42:38;102835.63;;;14.17;73.59
73457;BME280;61691;53.072;6.582;2023-05-19T04:45:11;102821.41;;;14.79;72.82
73457;BME280;61691;53.072;6.582;2023-05-19T04:47:40;102796.09;;;15.30;71.13
73457;BME280;61691;53.072;6.582;2023-05-19T04:50:08;102817.47;;;16.10;69.96
73457;BME280;61691;53.072;6.582;2023-05-19T04:52:36;102827.84;;;16.80;68.30
73457;BME280;61691;53.072;6.582;2023-05-19T04:55:03;102822.63;;;17.31;66.99
73457;BME280;61691;53.072;6.582;2023-05-19T04:57:30;102836.28;;;17.90;64.27
73457;BME280;61691;53.072;6.582;2023-05-19T04:59:57;102819.47;;;18.18;63.08
73457;BME280;61691;53.072;6.582;2023-05-19T05:02:25;102832.50;;;18.63;61.23
73457;BME280;61691;53.072;6.582;2023-05-19T05:04:54;102830.66;;;19.12;60.38
73457;BME280;61691;53.072;6.582;2023-05-19T05:07:22;102820.59;;;19.43;56.81
73457;BME280;61691;53.072;6.582;2023-05-19T05:09:49;102818.97;;;19.79;56.50
73457;BME280;61691;53.072;6.582;2023-05-19T05:12:20;102819.66;;;20.18;54.36
73457;BME280;61691;53.072;6.582;2023-05-19T05:14:47;102825.91;;;20.45;52.49
73457;BME280;61691;53.072;6.582;2023-05-19T05:17:14;102830.88;;;20.68;51.03
73457;BME280;61691;53.072;6.582;2023-05-19T05:19:41;102828.06;;;20.87;49.26
73457;BME280;61691;53.072;6.582;2023-05-19T05:22:08;102828.13;;;20.95;48.23
73457;BME280;61691;53.072;6.582;2023-05-19T05:24:35;102825.72;;;21.28;47.49
73457;BME280;61691;53.072;6.582;2023-05-19T05:27:02;102813.44;;;21.51;46.05
73457;BME280;61691;53.072;6.582;2023-05-19T05:29:29;102825.25;;;21.50;44.05
73457;BME280;61691;53.072;6.582;2023-05-19T05:31:56;102821.31;;;21.44;44.03
73457;BME280;61691;53.072;6.582;2023-05-19T05:34:23;102830.94;;;21.65;43.49
73457;BME280;61691;53.072;6.582;2023-05-19T05:36:50;102814.75;;;21.73;42.47
73457;BME280;61691;53.072;6.582;2023-05-19T05:39:17;102834.28;;;21.92;41.49
73457;BME280;61691;53.072;6.582;2023-05-19T05:41:43;102847.56;;;22.12;41.34
73457;BME280;61691;53.072;6.582;2023-05-19T05:44:10;102846.91;;;22.18;40.23
73457;BME280;61691;53.072;6.582;2023-05-19T05:46:37;102845.81;;;22.36;40.38
73457;BME280;61691;53.072;6.582;2023-05-19T05:49:04;102841.38;;;22.69;39.51
73457;BME280;61691;53.072;6.582;2023-05-19T05:51:31;102817.41;;;22.74;38.75
73457;BME280;61691;53.072;6.582;2023-05-19T05:53:59;102844.47;;;22.91;37.95
73457;BME280;61691;53.072;6.582;2023-05-19T05:56:26;102823.19;;;23.04;38.02
73457;BME280;61691;53.072;6.582;2023-05-19T05:58:53;102824.53;;;23.16;36.92
73457;BME280;61691;53.072;6.582;2023-05-19T06:01:20;102821.66;;;22.93;36.38
73457;BME280;61691;53.072;6.582;2023-05-19T06:03:47;102838.25;;;22.98;36.29
73457;BME280;61691;53.072;6.582;2023-05-19T06:06:14;102837.56;;;23.37;35.68
73457;BME280;61691;53.072;6.582;2023-05-19T06:08:40;102834.69;;;23.54;34.43
73457;BME280;61691;53.072;6.582;2023-05-19T06:11:07;102798.47;;;23.64;34.05
73457;BME280;61691;53.072;6.582;2023-05-19T06:13:35;102842.34;;;24.06;34.01
73457;BME280;61691;53.072;6.582;2023-05-19T06:16:02;102825.75;;;24.09;33.30
73457;BME280;61691;53.072;6.582;2023-05-19T06:18:29;102838.13;;;24.04;32.80
73457;BME280;61691;53.072;6.582;2023-05-19T06:20:55;102837.41;;;24.26;33.17
73457;BME280;61691;53.072;6.582;2023-05-19T06:23:22;102845.09;;;24.76;32.15
73457;BME280;61691;53.072;6.582;2023-05-19T06:25:50;102831.19;;;25.25;31.67
73457;BME280;61691;53.072;6.582;2023-05-19T06:28:17;102849.75;;;25.88;30.30
73457;BME280;61691;53.072;6.582;2023-05-19T06:30:43;102842.34;;;25.97;29.61
73457;BME280;61691;53.072;6.582;2023-05-19T06:33:10;102773.28;;;25.47;29.31
73457;BME280;61691;53.072;6.582;2023-05-19T06:35:37;102842.63;;;25.72;29.64
73457;BME280;61691;53.072;6.582;2023-05-19T06:38:04;102849.19;;;25.63;28.81
73457;BME280;61691;53.072;6.582;2023-05-19T06:40:30;102847.00;;;25.59;29.11
73457;BME280;61691;53.072;6.582;2023-05-19T06:42:57;102853.97;;;25.91;29.17
73457;BME280;61691;53.072;6.582;2023-05-19T06:45:24;102842.53;;;26.10;27.93
73457;BME280;61691;53.072;6.582;2023-05-19T06:47:51;102841.78;;;26.01;27.91
73457;BME280;61691;53.072;6.582;2023-05-19T06:50:18;102835.50;;;25.71;27.67
73457;BME280;61691;53.072;6.582;2023-05-19T06:52:44;102864.34;;;25.72;27.88
73457;BME280;61691;53.072;6.582;2023-05-19T06:55:12;102853.97;;;25.91;27.52
73457;BME280;61691;53.072;6.582;2023-05-19T06:57:39;102865.88;;;26.19;26.75
73457;BME280;61691;53.072;6.582;2023-05-19T07:00:06;102870.22;;;26.28;25.30
73457;BME280;61691;53.072;6.582;2023-05-19T07:02:40;102850.31;;;26.13;26.04
73457;BME280;61691;53.072;6.582;2023-05-19T07:05:07;102869.03;;;26.67;26.72
73457;BME280;61691;53.072;6.582;2023-05-19T07:07:34;102870.38;;;27.34;25.43
73457;BME280;61691;53.072;6.582;2023-05-19T07:10:01;102839.75;;;27.54;24.43
73457;BME280;61691;53.072;6.582;2023-05-19T07:12:28;102858.16;;;27.80;22.71
73457;BME280;61691;53.072;6.582;2023-05-19T07:14:55;102846.91;;;27.12;23.00
73457;BME280;61691;53.072;6.582;2023-05-19T07:17:21;102851.44;;;26.33;23.75
73457;BME280;61691;53.072;6.582;2023-05-19T07:19:48;102863.81;;;26.21;23.65
73457;BME280;61691;53.072;6.582;2023-05-19T07:22:15;102854.34;;;26.02;24.28
73457;BME280;61691;53.072;6.582;2023-05-19T07:24:42;102861.69;;;26.31;24.14
73457;BME280;61691;53.072;6.582;2023-05-19T07:27:09;102865.84;;;26.48;23.35
73457;BME280;61691;53.072;6.582;2023-05-19T07:29:36;102862.59;;;26.24;23.60
73457;BME280;61691;53.072;6.582;2023-05-19T07:32:03;102859.13;;;26.15;23.92
73457;BME280;61691;53.072;6.582;2023-05-19T07:34:30;102845.34;;;26.16;23.81
73457;BME280;61691;53.072;6.582;2023-05-19T07:36:56;102858.75;;;26.18;22.85
73457;BME280;61691;53.072;6.582;2023-05-19T07:39:23;102851.34;;;25.45;23.65
73457;BME280;61691;53.072;6.582;2023-05-19T07:41:53;102855.81;;;25.00;23.86
73457;BME280;61691;53.072;6.582;2023-05-19T07:44:21;102849.09;;;24.26;24.78
73457;BME280;61691;53.072;6.582;2023-05-19T07:46:47;102843.78;;;23.78;25.52
73457;BME280;61691;53.072;6.582;2023-05-19T07:49:14;102798.66;;;22.81;26.34
73457;BME280;61691;53.072;6.582;2023-05-19T07:51:41;102765.06;;;22.17;27.22
73457;BME280;61691;53.072;6.582;2023-05-19T07:54:08;102847.69;;;22.36;28.01
73457;BME280;61691;53.072;6.582;2023-05-19T07:56:34;102843.22;;;22.19;28.83
73457;BME280;61691;53.072;6.582;2023-05-19T07:59:02;102821.38;;;21.52;29.10
73457;BME280;61691;53.072;6.582;2023-05-19T08:01:30;102831.13;;;21.10;29.57
73457;BME280;61691;53.072;6.582;2023-05-19T08:03:57;102832.06;;;20.65;30.41
73457;BME280;61691;53.072;6.582;2023-05-19T08:06:24;102843.94;;;20.08;31.84
73457;BME280;61691;53.072;6.582;2023-05-19T08:08:51;102831.75;;;19.77;31.78
73457;BME280;61691;53.072;6.582;2023-05-19T08:11:19;102830.06;;;19.56;31.94
73457;BME280;61691;53.072;6.582;2023-05-19T08:13:47;102821.31;;;19.35;32.94
73457;BME280;61691;53.072;6.582;2023-05-19T08:16:17;102822.47;;;19.23;33.56
73457;BME280;61691;53.072;6.582;2023-05-19T08:18:44;102839.44;;;18.94;34.43
73457;BME280;61691;53.072;6.582;2023-05-19T08:21:11;102813.69;;;18.63;33.87
73457;BME280;61691;53.072;6.582;2023-05-19T08:23:37;102824.63;;;18.41;34.23
73457;BME280;61691;53.072;6.582;2023-05-19T08:26:04;102816.91;;;18.17;35.40
73457;BME280;61691;53.072;6.582;2023-05-19T08:28:31;102804.97;;;18.00;34.92
73457;BME280;61691;53.072;6.582;2023-05-19T08:30:58;102790.50;;;17.82;34.96
73457;BME280;61691;53.072;6.582;2023-05-19T08:33:25;102827.00;;;17.94;34.68
73457;BME280;61691;53.072;6.582;2023-05-19T08:35:51;102826.41;;;17.91;35.59
73457;BME280;61691;53.072;6.582;2023-05-19T08:38:18;102826.28;;;17.92;35.50
73457;BME280;61691;53.072;6.582;2023-05-19T08:40:46;102819.75;;;17.85;35.72
73457;BME280;61691;53.072;6.582;2023-05-19T08:43:13;102817.06;;;17.85;35.78
73457;BME280;61691;53.072;6.582;2023-05-19T08:45:43;102775.72;;;17.67;35.79
73457;BME280;61691;53.072;6.582;2023-05-19T08:48:15;102797.03;;;17.89;35.69
73457;BME280;61691;53.072;6.582;2023-05-19T08:50:48;102804.38;;;17.87;36.25
73457;BME280;61691;53.072;6.582;2023-05-19T08:53:22;102768.19;;;17.61;35.97
73457;BME280;61691;53.072;6.582;2023-05-19T08:58:30;102792.44;;;17.50;36.15
73457;BME280;61691;53.072;6.582;2023-05-19T09:00:58;102789.69;;;17.40;36.08
73457;BME280;61691;53.072;6.582;2023-05-19T09:03:26;102786.34;;;17.48;36.56
73457;BME280;61691;53.072;6.582;2023-05-19T09:05:54;102798.03;;;17.47;35.96
73457;BME280;61691;53.072;6.582;2023-05-19T09:08:21;102794.38;;;17.48;36.68
73457;BME280;61691;53.072;6.582;2023-05-19T09:10:48;102791.69;;;17.48;36.59
73457;BME280;61691;53.072;6.582;2023-05-19T09:13:14;102767.66;;;17.36;36.61
73457;BME280;61691;53.072;6.582;2023-05-19T09:15:43;102779.56;;;17.44;36.00
73457;BME280;61691;53.072;6.582;2023-05-19T09:18:12;102780.97;;;17.48;35.57
73457;BME280;61691;53.072;6.582;2023-05-19T09:20:43;102784.84;;;17.34;33.64
73457;BME280;61691;53.072;6.582;2023-05-19T09:23:14;102781.38;;;17.22;34.35
73457;BME280;61691;53.072;6.582;2023-05-19T09:25:51;102788.72;;;17.20;34.47
73457;BME280;61691;53.072;6.582;2023-05-19T09:28:30;102772.09;;;17.06;34.45
73457;BME280;61691;53.072;6.582;2023-05-19T09:31:08;102785.53;;;17.15;34.76
73457;BME280;61691;53.072;6.582;2023-05-19T09:33:37;102764.19;;;17.04;34.92
73457;BME280;61691;53.072;6.582;2023-05-19T09:36:05;102766.34;;;17.10;34.43
73457;BME280;61691;53.072;6.582;2023-05-19T09:38:34;102754.69;;;17.00;34.28
73457;BME280;61691;53.072;6.582;2023-05-19T09:41:02;102774.13;;;17.13;34.50
73457;BME280;61691;53.072;6.582;2023-05-19T09:43:30;102742.53;;;16.96;34.36
73457;BME280;61691;53.072;6.582;2023-05-19T09:46:03;102752.75;;;17.02;34.22
73457;BME280;61691;53.072;6.582;2023-05-19T09:48:32;102749.09;;;17.03;34.42
73457;BME280;61691;53.072;6.582;2023-05-19T09:51:01;102744.69;;;17.02;34.48
73457;BME280;61691;53.072;6.582;2023-05-19T09:53:29;102747.19;;;17.15;34.29
73457;BME280;61691;53.072;6.582;2023-05-19T09:55:57;102744.38;;;17.16;33.90
73457;BME280;61691;53.072;6.582;2023-05-19T09:58:24;102713.59;;;16.90;34.06
73457;BME280;61691;53.072;6.582;2023-05-19T10:00:52;102747.53;;;17.21;34.81
73457;BME280;61691;53.072;6.582;2023-05-19T10:03:22;102745.28;;;17.26;34.66
73457;BME280;61691;53.072;6.582;2023-05-19T10:05:52;102720.72;;;17.21;35.07
73457;BME280;61691;53.072;6.582;2023-05-19T10:08:19;102731.09;;;17.35;34.97
73457;BME280;61691;53.072;6.582;2023-05-19T10:10:47;102756.44;;;17.52;34.70
73457;BME280;61691;53.072;6.582;2023-05-19T10:13:14;102750.50;;;17.49;34.61
73457;BME280;61691;53.072;6.582;2023-05-19T10:15:42;102750.94;;;17.54;33.45
73457;BME280;61691;53.072;6.582;2023-05-19T10:18:24;102751.88;;;17.43;33.25
73457;BME280;61691;53.072;6.582;2023-05-19T10:20:51;102709.19;;;17.30;33.52
73457;BME280;61691;53.072;6.582;2023-05-19T10:23:19;102737.84;;;17.60;33.73
73457;BME280;61691;53.072;6.582;2023-05-19T10:25:46;102732.75;;;17.78;33.58
73457;BME280;61691;53.072;6.582;2023-05-19T10:28:16;102741.13;;;17.94;33.92
73457;BME280;61691;53.072;6.582;2023-05-19T10:30:46;102737.81;;;18.11;33.66
73457;BME280;61691;53.072;6.582;2023-05-19T10:33:15;102730.75;;;18.30;33.01
73457;BME280;61691;53.072;6.582;2023-05-19T10:36:24;102733.47;;;18.39;32.98
73457;BME280;61691;53.072;6.582;2023-05-19T10:38:59;102735.13;;;18.31;32.52
73457;BME280;61691;53.072;6.582;2023-05-19T10:41:43;102716.75;;;18.16;32.52
73457;BME280;61691;53.072;6.582;2023-05-19T10:44:30;102717.28;;;18.01;33.28
73457;BME280;61691;53.072;6.582;2023-05-19T10:47:00;102726.44;;;17.98;33.67
73457;BME280;61691;53.072;6.582;2023-05-19T10:49:27;102719.13;;;18.00;33.17
73457;BME280;61691;53.072;6.582;2023-05-19T10:51:54;102693.66;;;17.85;33.78
73457;BME280;61691;53.072;6.582;2023-05-19T10:54:40;102717.69;;;17.96;33.51
73457;BME280;61691;53.072;6.582;2023-05-19T10:57:07;102724.50;;;18.10;33.43
73457;BME280;61691;53.072;6.582;2023-05-19T10:59:34;102705.28;;;18.14;33.28
73457;BME280;61691;53.072;6.582;2023-05-19T11:02:03;102701.94;;;18.32;33.84
73457;BME280;61691;53.072;6.582;2023-05-19T11:04:47;102676.78;;;18.33;34.42
73457;BME280;61691;53.072;6.582;2023-05-19T11:07:18;102686.53;;;18.53;34.17
73457;BME280;61691;53.072;6.582;2023-05-19T11:09:50;102663.34;;;18.52;34.38
73457;BME280;61691;53.072;6.582;2023-05-19T11:12:21;102672.56;;;18.59;33.46
73457;BME280;61691;53.072;6.582;2023-05-19T11:14:53;102705.66;;;18.69;33.43
73457;BME280;61691;53.072;6.582;2023-05-19T11:17:20;102699.72;;;18.75;32.62
73457;BME280;61691;53.072;6.582;2023-05-19T11:19:52;102680.22;;;18.64;33.25
73457;BME280;61691;53.072;6.582;2023-05-19T11:22:24;102676.25;;;18.58;33.29
73457;BME280;61691;53.072;6.582;2023-05-19T11:24:54;102696.88;;;18.86;33.42
73457;BME280;61691;53.072;6.582;2023-05-19T11:27:25;102701.94;;;18.99;32.93
73457;BME280;61691;53.072;6.582;2023-05-19T11:30:07;102707.47;;;18.98;32.91
73457;BME280;61691;53.072;6.582;2023-05-19T11:32:48;102690.66;;;18.86;32.35
73457;BME280;61691;53.072;6.582;2023-05-19T11:35:16;102686.69;;;18.90;32.67
73457;BME280;61691;53.072;6.582;2023-05-19T11:37:44;102692.31;;;19.06;32.91
73457;BME280;61691;53.072;6.582;2023-05-19T11:40:14;102697.81;;;19.14;32.60
73457;BME280;61691;53.072;6.582;2023-05-19T11:42:41;102688.06;;;19.04;33.19
73457;BME280;61691;53.072;6.582;2023-05-19T11:45:08;102689.22;;;19.01;33.15
73457;BME280;61691;53.072;6.582;2023-05-19T11:47:35;102673.94;;;18.92;33.45
73457;BME280;61691;53.072;6.582;2023-05-19T11:50:21;102666.00;;;19.00;34.27
73457;BME280;61691;53.072;6.582;2023-05-19T11:52:50;102693.94;;;19.26;33.32
73457;BME280;61691;53.072;6.582;2023-05-19T11:55:18;102696.13;;;19.13;33.47
73457;BME280;61691;53.072;6.582;2023-05-19T11:58:07;102693.56;;;19.02;34.73
73457;BME280;61691;53.072;6.582;2023-05-19T12:00:37;102630.03;;;18.64;33.94
73457;BME280;61691;53.072;6.582;2023-05-19T12:03:05;102685.22;;;19.05;33.77
73457;BME280;61691;53.072;6.582;2023-05-19T12:05:36;102666.03;;;18.90;33.93
73457;BME280;61691;53.072;6.582;2023-05-19T12:08:09;102688.38;;;19.01;33.55
73457;BME280;61691;53.072;6.582;2023-05-19T12:10:37;102685.50;;;19.02;33.63
73457;BME280;61691;53.072;6.582;2023-05-19T12:13:05;102673.34;;;19.08;34.42
73457;BME280;61691;53.072;6.582;2023-05-19T12:15:34;102668.22;;;19.24;34.61
73457;BME280;61691;53.072;6.582;2023-05-19T12:18:02;102654.28;;;19.38;34.97
73457;BME280;61691;53.072;6.582;2023-05-19T12:20:29;102683.69;;;19.49;34.20
73457;BME280;61691;53.072;6.582;2023-05-19T12:23:02;102647.25;;;19.18;34.23
73457;BME280;61691;53.072;6.582;2023-05-19T12:25:29;102674.47;;;19.15;33.85
73457;BME280;61691;53.072;6.582;2023-05-19T12:27:58;102664.84;;;19.03;34.60
73457;BME280;61691;53.072;6.582;2023-05-19T12:30:29;102658.94;;;18.89;35.15
73457;BME280;61691;53.072;6.582;2023-05-19T12:32:57;102665.16;;;19.00;35.33
73457;BME280;61691;53.072;6.582;2023-05-19T12:35:29;102674.75;;;19.12;35.31
73457;BME280;61691;53.072;6.582;2023-05-19T12:37:56;102661.44;;;19.10;34.35
73457;BME280;61691;53.072;6.582;2023-05-19T12:40:28;102668.78;;;19.18;34.64
73457;BME280;61691;53.072;6.582;2023-05-19T12:42:55;102663.41;;;19.18;34.75
73457;BME280;61691;53.072;6.582;2023-05-19T12:45:25;102651.25;;;19.14;35.19
73457;BME280;61691;53.072;6.582;2023-05-19T12:47:54;102666.63;;;19.31;35.74
73457;BME280;61691;53.072;6.582;2023-05-19T12:50:28;102653.13;;;19.41;35.50
73457;BME280;61691;53.072;6.582;2023-05-19T12:52:55;102648.19;;;19.36;35.25
73457;BME280;61691;53.072;6.582;2023-05-19T12:55:24;102650.59;;;19.39;35.26
73457;BME280;61691;53.072;6.582;2023-05-19T12:57:52;102651.72;;;19.46;34.83
73457;BME280;61691;53.072;6.582;2023-05-19T13:00:25;102648.44;;;19.43;35.40
73457;BME280;61691;53.072;6.582;2023-05-19T13:03:01;102641.53;;;19.40;36.02
73457;BME280;61691;53.072;6.582;2023-05-19T13:05:36;102638.81;;;19.40;35.79
73457;BME280;61691;53.072;6.582;2023-05-19T13:08:07;102651.41;;;19.49;35.82
73457;BME280;61691;53.072;6.582;2023-05-19T13:10:36;102646.31;;;19.46;35.67